sensor_id;sensor_type;location;lat;lon;timestamp;P1;durP1;ratioP1;P2;durP2;ratioP2
83719;SDS011;73702;49.668;8.544;2024-03-02T00:00:14;40.92;;;7.95;;
83719;SDS011;73702;49.668;8.544;2024-03-02T00:02:41;35.10;;;8.38;;
83719;SDS011;73702;49.668;8.544;2024-03-02T00:05:08;29.60;;;8.40;;
83719;SDS011;73702;49.668;8.544;2024-03-02T00:07:37;27.23;;;8.18;;
83719;SDS011;73702;49.668;8.544;2024-03-02T00:10:05;34.60;;;8.77;;
83719;SDS011;73702;49.668;8.544;2024-03-02T00:12:34;39.17;;;9.48;;
83719;SDS011;73702;49.668;8.544;2024-03-02T00:15:00;21.33;;;7.63;;
83719;SDS011;73702;49.668;8.544;2024-03-02T00:17:27;31.00;;;8.45;;
83719;SDS011;73702;49.668;8.544;2024-03-02T00:19:53;31.67;;;8.23;;
83719;SDS011;73702;49.668;8.544;2024-03-02T00:22:19;24.95;;;8.25;;
83719;SDS011;73702;49.668;8.544;2024-03-02T00:24:46;33.80;;;8.13;;
83719;SDS011;73702;49.668;8.544;2024-03-02T00:27:12;26.50;;;7.72;;
83719;SDS011;73702;49.668;8.544;2024-03-02T00:29:40;27.95;;;7.88;;
83719;SDS011;73702;49.668;8.544;2024-03-02T00:32:12;22.80;;;7.30;;
83719;SDS011;73702;49.668;8.544;2024-03-02T00:34:38;34.92;;;8.48;;
83719;SDS011;73702;49.668;8.544;2024-03-02T00:37:05;26.52;;;7.95;;
83719;SDS011;73702;49.668;8.544;2024-03-02T00:39:31;29.67;;;8.13;;
83719;SDS011;73702;49.668;8.544;2024-03-02T00:41:58;21.77;;;7.85;;
83719;SDS011;73702;49.668;8.544;2024-03-02T00:44:25;31.80;;;7.88;;
83719;SDS011;73702;49.668;8.544;2024-03-02T00:46:51;24.38;;;7.65;;
83719;SDS011;73702;49.668;8.544;2024-03-02T00:49:20;34.03;;;8.75;;
83719;SDS011;73702;49.668;8.544;2024-03-02T00:51:48;22.13;;;7.40;;
83719;SDS011;73702;49.668;8.544;2024-03-02T00:54:15;28.88;;;8.02;;
83719;SDS011;73702;49.668;8.544;2024-03-02T00:56:41;33.05;;;9.52;;
83719;SDS011;73702;49.668;8.544;2024-03-02T00:59:09;32.63;;;8.90;;
83719;SDS011;73702;49.668;8.544;2024-03-02T01:01:36;39.00;;;9.32;;
83719;SDS011;73702;49.668;8.544;2024-03-02T01:04:03;26.35;;;8.05;;
83719;SDS011;73702;49.668;8.544;2024-03-02T01:06:30;41.42;;;8.77;;
83719;SDS011;73702;49.668;8.544;2024-03-02T01:08:56;27.40;;;7.35;;
83719;SDS011;73702;49.668;8.544;2024-03-02T01:11:22;37.55;;;8.13;;
83719;SDS011;73702;49.668;8.544;2024-03-02T01:13:49;22.35;;;7.82;;
83719;SDS011;73702;49.668;8.544;2024-03-02T01:16:16;34.17;;;8.55;;
83719;SDS011;73702;49.668;8.544;2024-03-02T01:18:42;28.67;;;9.18;;
83719;SDS011;73702;49.668;8.544;2024-03-02T01:21:09;37.67;;;9.20;;
83719;SDS011;73702;49.668;8.544;2024-03-02T01:23:35;41.92;;;9.15;;
83719;SDS011;73702;49.668;8.544;2024-03-02T01:26:02;39.50;;;9.38;;
83719;SDS011;73702;49.668;8.544;2024-03-02T01:28:28;27.80;;;8.85;;
83719;SDS011;73702;49.668;8.544;2024-03-02T01:30:54;29.83;;;8.80;;
83719;SDS011;73702;49.668;8.544;2024-03-02T01:33:21;35.60;;;8.50;;
83719;SDS011;73702;49.668;8.544;2024-03-02T01:35:47;25.80;;;8.52;;
83719;SDS011;73702;49.668;8.544;2024-03-02T01:38:14;31.40;;;8.32;;
83719;SDS011;73702;49.668;8.544;2024-03-02T01:40:40;33.70;;;8.70;;
83719;SDS011;73702;49.668;8.544;2024-03-02T01:43:08;29.80;;;8.75;;
83719;SDS011;73702;49.668;8.544;2024-03-02T01:45:35;35.88;;;8.13;;
83719;SDS011;73702;49.668;8.544;2024-03-02T01:48:01;26.55;;;7.85;;
83719;SDS011;73702;49.668;8.544;2024-03-02T01:50:28;44.65;;;14.23;;
83719;SDS011;73702;49.668;8.544;2024-03-02T01:52:55;72.15;;;22.83;;
83719;SDS011;73702;49.668;8.544;2024-03-02T01:55:22;73.10;;;20.45;;
83719;SDS011;73702;49.668;8.544;2024-03-02T01:57:49;37.38;;;10.27;;
83719;SDS011;73702;49.668;8.544;2024-03-02T02:00:16;53.30;;;14.25;;
83719;SDS011;73702;49.668;8.544;2024-03-02T02:02:43;65.85;;;19.48;;
83719;SDS011;73702;49.668;8.544;2024-03-02T02:05:09;47.90;;;13.40;;
83719;SDS011;73702;49.668;8.544;2024-03-02T02:07:35;48.20;;;12.27;;
83719;SDS011;73702;49.668;8.544;2024-03-02T02:10:02;34.25;;;10.52;;
83719;SDS011;73702;49.668;8.544;2024-03-02T02:12:29;34.70;;;10.25;;
83719;SDS011;73702;49.668;8.544;2024-03-02T02:14:55;36.20;;;9.98;;
83719;SDS011;73702;49.668;8.544;2024-03-02T02:17:22;38.67;;;10.00;;
83719;SDS011;73702;49.668;8.544;2024-03-02T02:19:48;45.28;;;10.73;;
83719;SDS011;73702;49.668;8.544;2024-03-02T02:22:15;30.40;;;8.85;;
83719;SDS011;73702;49.668;8.544;2024-03-02T02:24:41;44.20;;;10.68;;
83719;SDS011;73702;49.668;8.544;2024-03-02T02:27:08;30.10;;;10.13;;
83719;SDS011;73702;49.668;8.544;2024-03-02T02:29:34;30.83;;;9.75;;
83719;SDS011;73702;49.668;8.544;2024-03-02T02:32:01;31.27;;;9.07;;
83719;SDS011;73702;49.668;8.544;2024-03-02T02:34:27;30.20;;;9.07;;
83719;SDS011;73702;49.668;8.544;2024-03-02T02:36:53;30.52;;;10.55;;
83719;SDS011;73702;49.668;8.544;2024-03-02T02:39:20;29.27;;;9.30;;
83719;SDS011;73702;49.668;8.544;2024-03-02T02:41:48;38.13;;;9.77;;
83719;SDS011;73702;49.668;8.544;2024-03-02T02:44:14;37.20;;;9.45;;
83719;SDS011;73702;49.668;8.544;2024-03-02T02:46:40;40.00;;;9.35;;
83719;SDS011;73702;49.668;8.544;2024-03-02T02:49:07;26.65;;;8.63;;
83719;SDS011;73702;49.668;8.544;2024-03-02T02:51:33;33.58;;;8.98;;
83719;SDS011;73702;49.668;8.544;2024-03-02T02:54:00;37.03;;;9.55;;
83719;SDS011;73702;49.668;8.544;2024-03-02T02:56:26;28.55;;;8.57;;
83719;SDS011;73702;49.668;8.544;2024-03-02T02:58:53;36.53;;;9.18;;
83719;SDS011;73702;49.668;8.544;2024-03-02T03:04:28;33.15;;;9.07;;
83719;SDS011;73702;49.668;8.544;2024-03-02T03:06:55;33.75;;;9.82;;
83719;SDS011;73702;49.668;8.544;2024-03-02T03:09:21;26.15;;;8.32;;
83719;SDS011;73702;49.668;8.544;2024-03-02T03:11:48;31.73;;;8.48;;
83719;SDS011;73702;49.668;8.544;2024-03-02T03:14:14;24.17;;;8.65;;
83719;SDS011;73702;49.668;8.544;2024-03-02T03:16:40;39.25;;;8.90;;
83719;SDS011;73702;49.668;8.544;2024-03-02T03:19:07;28.70;;;8.52;;
83719;SDS011;73702;49.668;8.544;2024-03-02T03:21:33;30.58;;;8.50;;
83719;SDS011;73702;49.668;8.544;2024-03-02T03:24:00;29.95;;;8.05;;
83719;SDS011;73702;49.668;8.544;2024-03-02T03:26:26;33.45;;;9.20;;
83719;SDS011;73702;49.668;8.544;2024-03-02T03:28:53;29.67;;;9.88;;
83719;SDS011;73702;49.668;8.544;2024-03-02T03:31:19;34.90;;;8.93;;
83719;SDS011;73702;49.668;8.544;2024-03-02T03:33:45;36.50;;;9.30;;
83719;SDS011;73702;49.668;8.544;2024-03-02T03:36:12;32.65;;;8.82;;
83719;SDS011;73702;49.668;8.544;2024-03-02T03:38:38;23.42;;;7.40;;
83719;SDS011;73702;49.668;8.544;2024-03-02T03:41:04;27.52;;;8.43;;
83719;SDS011;73702;49.668;8.544;2024-03-02T03:43:31;26.48;;;8.05;;
83719;SDS011;73702;49.668;8.544;2024-03-02T03:45:57;40.78;;;8.63;;
83719;SDS011;73702;49.668;8.544;2024-03-02T03:48:24;52.08;;;10.43;;
83719;SDS011;73702;49.668;8.544;2024-03-02T03:50:51;40.67;;;9.60;;
83719;SDS011;73702;49.668;8.544;2024-03-02T03:53:17;29.30;;;8.50;;
83719;SDS011;73702;49.668;8.544;2024-03-02T03:55:43;30.80;;;9.52;;
83719;SDS011;73702;49.668;8.544;2024-03-02T03:58:10;28.73;;;9.10;;
83719;SDS011;73702;49.668;8.544;2024-03-02T04:00:36;30.70;;;8.52;;
83719;SDS011;73702;49.668;8.544;2024-03-02T04:03:03;36.53;;;10.02;;
83719;SDS011;73702;49.668;8.544;2024-03-02T04:05:29;26.67;;;8.50;;
83719;SDS011;73702;49.668;8.544;2024-03-02T04:07:56;31.00;;;8.88;;
83719;SDS011;73702;49.668;8.544;2024-03-02T04:10:22;31.20;;;8.35;;
83719;SDS011;73702;49.668;8.544;2024-03-02T04:12:49;47.80;;;9.95;;
83719;SDS011;73702;49.668;8.544;2024-03-02T04:15:15;39.90;;;9.57;;
83719;SDS011;73702;49.668;8.544;2024-03-02T04:17:42;29.55;;;9.30;;
83719;SDS011;73702;49.668;8.544;2024-03-02T04:20:09;28.92;;;8.90;;
83719;SDS011;73702;49.668;8.544;2024-03-02T04:22:35;35.45;;;8.55;;
83719;SDS011;73702;49.668;8.544;2024-03-02T04:25:02;38.47;;;9.48;;
83719;SDS011;73702;49.668;8.544;2024-03-02T04:27:29;29.15;;;8.50;;
83719;SDS011;73702;49.668;8.544;2024-03-02T04:29:55;34.17;;;9.02;;
83719;SDS011;73702;49.668;8.544;2024-03-02T04:32:21;33.78;;;8.35;;
83719;SDS011;73702;49.668;8.544;2024-03-02T04:34:48;28.90;;;8.45;;
83719;SDS011;73702;49.668;8.544;2024-03-02T04:37:14;27.85;;;8.00;;
83719;SDS011;73702;49.668;8.544;2024-03-02T04:39:41;28.50;;;7.88;;
83719;SDS011;73702;49.668;8.544;2024-03-02T04:42:07;36.75;;;8.35;;
83719;SDS011;73702;49.668;8.544;2024-03-02T04:44:34;31.20;;;7.78;;
83719;SDS011;73702;49.668;8.544;2024-03-02T04:47:01;32.42;;;7.60;;
83719;SDS011;73702;49.668;8.544;2024-03-02T04:49:27;26.33;;;7.28;;
83719;SDS011;73702;49.668;8.544;2024-03-02T04:51:54;37.53;;;8.30;;
83719;SDS011;73702;49.668;8.544;2024-03-02T04:54:21;33.08;;;7.90;;
83719;SDS011;73702;49.668;8.544;2024-03-02T04:56:47;28.05;;;7.78;;
83719;SDS011;73702;49.668;8.544;2024-03-02T04:59:13;30.60;;;7.57;;
83719;SDS011;73702;49.668;8.544;2024-03-02T05:01:40;31.27;;;8.35;;
83719;SDS011;73702;49.668;8.544;2024-03-02T05:04:06;43.13;;;9.00;;
83719;SDS011;73702;49.668;8.544;2024-03-02T05:06:33;29.73;;;8.15;;
83719;SDS011;73702;49.668;8.544;2024-03-02T05:09:00;36.78;;;8.13;;
83719;SDS011;73702;49.668;8.544;2024-03-02T05:11:26;29.58;;;8.23;;
83719;SDS011;73702;49.668;8.544;2024-03-02T05:13:53;26.35;;;7.63;;
83719;SDS011;73702;49.668;8.544;2024-03-02T05:16:19;28.23;;;7.43;;
83719;SDS011;73702;49.668;8.544;2024-03-02T05:18:46;28.00;;;8.40;;
83719;SDS011;73702;49.668;8.544;2024-03-02T05:21:12;32.60;;;9.52;;
83719;SDS011;73702;49.668;8.544;2024-03-02T05:23:38;32.03;;;8.57;;
83719;SDS011;73702;49.668;8.544;2024-03-02T05:26:05;44.90;;;9.75;;
83719;SDS011;73702;49.668;8.544;2024-03-02T05:28:31;33.22;;;9.48;;
83719;SDS011;73702;49.668;8.544;2024-03-02T05:30:58;43.22;;;10.10;;
83719;SDS011;73702;49.668;8.544;2024-03-02T05:33:24;33.72;;;9.68;;
83719;SDS011;73702;49.668;8.544;2024-03-02T05:35:51;41.97;;;10.20;;
83719;SDS011;73702;49.668;8.544;2024-03-02T05:38:17;37.55;;;10.20;;
83719;SDS011;73702;49.668;8.544;2024-03-02T05:40:44;34.60;;;9.90;;
83719;SDS011;73702;49.668;8.544;2024-03-02T05:43:10;41.25;;;10.23;;
83719;SDS011;73702;49.668;8.544;2024-03-02T05:45:36;32.38;;;8.88;;
83719;SDS011;73702;49.668;8.544;2024-03-02T05:48:03;33.33;;;9.88;;
83719;SDS011;73702;49.668;8.544;2024-03-02T05:50:30;32.88;;;9.18;;
83719;SDS011;73702;49.668;8.544;2024-03-02T05:52:57;29.90;;;8.93;;
83719;SDS011;73702;49.668;8.544;2024-03-02T05:55:23;27.63;;;8.90;;
83719;SDS011;73702;49.668;8.544;2024-03-02T05:57:49;36.83;;;9.77;;
83719;SDS011;73702;49.668;8.544;2024-03-02T06:00:16;29.58;;;9.02;;
83719;SDS011;73702;49.668;8.544;2024-03-02T06:02:42;28.60;;;9.13;;
83719;SDS011;73702;49.668;8.544;2024-03-02T06:05:09;55.10;;;11.10;;
83719;SDS011;73702;49.668;8.544;2024-03-02T06:07:36;38.13;;;10.52;;
83719;SDS011;73702;49.668;8.544;2024-03-02T06:10:02;39.13;;;10.77;;
83719;SDS011;73702;49.668;8.544;2024-03-02T06:12:30;30.75;;;10.35;;
83719;SDS011;73702;49.668;8.544;2024-03-02T06:14:57;41.55;;;11.27;;
83719;SDS011;73702;49.668;8.544;2024-03-02T06:17:23;34.90;;;9.32;;
83719;SDS011;73702;49.668;8.544;2024-03-02T06:19:49;34.85;;;10.90;;
83719;SDS011;73702;49.668;8.544;2024-03-02T06:22:16;44.28;;;11.00;;
83719;SDS011;73702;49.668;8.544;2024-03-02T06:24:42;32.92;;;10.43;;
83719;SDS011;73702;49.668;8.544;2024-03-02T06:27:09;45.45;;;10.82;;
83719;SDS011;73702;49.668;8.544;2024-03-02T06:29:35;42.30;;;10.80;;
83719;SDS011;73702;49.668;8.544;2024-03-02T06:32:02;39.75;;;10.30;;
83719;SDS011;73702;49.668;8.544;2024-03-02T06:34:28;43.55;;;10.55;;
83719;SDS011;73702;49.668;8.544;2024-03-02T06:36:54;31.80;;;9.85;;
83719;SDS011;73702;49.668;8.544;2024-03-02T06:39:21;36.13;;;9.50;;
83719;SDS011;73702;49.668;8.544;2024-03-02T06:41:47;28.73;;;9.70;;
83719;SDS011;73702;49.668;8.544;2024-03-02T06:44:14;37.60;;;10.38;;
83719;SDS011;73702;49.668;8.544;2024-03-02T06:46:40;40.92;;;10.93;;
83719;SDS011;73702;49.668;8.544;2024-03-02T06:49:06;52.20;;;12.48;;
83719;SDS011;73702;49.668;8.544;2024-03-02T06:51:33;34.40;;;10.73;;
83719;SDS011;73702;49.668;8.544;2024-03-02T06:54:00;32.53;;;10.55;;
83719;SDS011;73702;49.668;8.544;2024-03-02T06:56:26;32.55;;;10.00;;
83719;SDS011;73702;49.668;8.544;2024-03-02T06:58:53;31.20;;;10.48;;
83719;SDS011;73702;49.668;8.544;2024-03-02T07:01:19;54.85;;;12.40;;
83719;SDS011;73702;49.668;8.544;2024-03-02T07:03:49;34.78;;;10.10;;
83719;SDS011;73702;49.668;8.544;2024-03-02T07:06:16;45.63;;;11.30;;
83719;SDS011;73702;49.668;8.544;2024-03-02T07:08:42;38.92;;;10.05;;
83719;SDS011;73702;49.668;8.544;2024-03-02T07:11:08;43.28;;;11.15;;
83719;SDS011;73702;49.668;8.544;2024-03-02T07:13:35;35.22;;;10.35;;
83719;SDS011;73702;49.668;8.544;2024-03-02T07:16:02;40.03;;;11.20;;
83719;SDS011;73702;49.668;8.544;2024-03-02T07:18:29;41.08;;;10.40;;
83719;SDS011;73702;49.668;8.544;2024-03-02T07:20:55;36.13;;;10.75;;
83719;SDS011;73702;49.668;8.544;2024-03-02T07:23:22;45.33;;;11.27;;
83719;SDS011;73702;49.668;8.544;2024-03-02T07:25:49;37.10;;;11.40;;
83719;SDS011;73702;49.668;8.544;2024-03-02T07:28:18;46.60;;;12.38;;
83719;SDS011;73702;49.668;8.544;2024-03-02T07:30:44;45.55;;;13.10;;
83719;SDS011;73702;49.668;8.544;2024-03-02T07:33:11;37.40;;;13.65;;
83719;SDS011;73702;49.668;8.544;2024-03-02T07:35:38;41.53;;;13.93;;
83719;SDS011;73702;49.668;8.544;2024-03-02T07:38:04;40.90;;;14.38;;
83719;SDS011;73702;49.668;8.544;2024-03-02T07:40:30;48.55;;;17.25;;
83719;SDS011;73702;49.668;8.544;2024-03-02T07:42:57;54.28;;;17.95;;
83719;SDS011;73702;49.668;8.544;2024-03-02T07:45:23;61.65;;;18.60;;
83719;SDS011;73702;49.668;8.544;2024-03-02T07:47:49;54.22;;;17.83;;
83719;SDS011;73702;49.668;8.544;2024-03-02T07:50:16;60.75;;;17.85;;
83719;SDS011;73702;49.668;8.544;2024-03-02T07:52:43;45.40;;;14.60;;
83719;SDS011;73702;49.668;8.544;2024-03-02T07:55:09;41.17;;;13.95;;
83719;SDS011;73702;49.668;8.544;2024-03-02T07:57:36;45.90;;;13.32;;
83719;SDS011;73702;49.668;8.544;2024-03-02T08:00:03;41.47;;;13.32;;
83719;SDS011;73702;49.668;8.544;2024-03-02T08:02:29;34.53;;;10.93;;
83719;SDS011;73702;49.668;8.544;2024-03-02T08:04:56;29.73;;;10.60;;
83719;SDS011;73702;49.668;8.544;2024-03-02T08:07:22;38.13;;;10.90;;
83719;SDS011;73702;49.668;8.544;2024-03-02T08:09:48;29.42;;;11.43;;
83719;SDS011;73702;49.668;8.544;2024-03-02T08:12:15;40.85;;;12.88;;
83719;SDS011;73702;49.668;8.544;2024-03-02T08:14:41;28.65;;;11.30;;
83719;SDS011;73702;49.668;8.544;2024-03-02T08:17:08;33.72;;;11.55;;
83719;SDS011;73702;49.668;8.544;2024-03-02T08:19:34;31.02;;;11.27;;
83719;SDS011;73702;49.668;8.544;2024-03-02T08:22:00;32.20;;;10.77;;
83719;SDS011;73702;49.668;8.544;2024-03-02T08:24:27;33.15;;;10.48;;
83719;SDS011;73702;49.668;8.544;2024-03-02T08:26:54;40.90;;;10.35;;
83719;SDS011;73702;49.668;8.544;2024-03-02T08:29:20;44.33;;;11.15;;
83719;SDS011;73702;49.668;8.544;2024-03-02T08:31:47;31.90;;;10.60;;
83719;SDS011;73702;49.668;8.544;2024-03-02T08:34:13;26.00;;;9.23;;
83719;SDS011;73702;49.668;8.544;2024-03-02T08:36:40;32.30;;;9.05;;
83719;SDS011;73702;49.668;8.544;2024-03-02T08:39:07;27.95;;;8.43;;
83719;SDS011;73702;49.668;8.544;2024-03-02T08:41:33;29.15;;;8.95;;
83719;SDS011;73702;49.668;8.544;2024-03-02T08:44:00;23.13;;;8.07;;
83719;SDS011;73702;49.668;8.544;2024-03-02T08:46:26;38.53;;;9.23;;
83719;SDS011;73702;49.668;8.544;2024-03-02T08:48:53;19.58;;;7.82;;
83719;SDS011;73702;49.668;8.544;2024-03-02T08:51:20;32.95;;;8.82;;
83719;SDS011;73702;49.668;8.544;2024-03-02T08:53:46;26.95;;;8.85;;
83719;SDS011;73702;49.668;8.544;2024-03-02T08:56:13;25.60;;;7.75;;
83719;SDS011;73702;49.668;8.544;2024-03-02T08:58:39;25.02;;;8.40;;
83719;SDS011;73702;49.668;8.544;2024-03-02T09:01:06;24.25;;;8.10;;
83719;SDS011;73702;49.668;8.544;2024-03-02T09:03:32;27.90;;;8.65;;
83719;SDS011;73702;49.668;8.544;2024-03-02T09:05:59;26.40;;;8.38;;
83719;SDS011;73702;49.668;8.544;2024-03-02T09:08:25;33.45;;;9.68;;
83719;SDS011;73702;49.668;8.544;2024-03-02T09:10:52;32.70;;;9.30;;
83719;SDS011;73702;49.668;8.544;2024-03-02T09:13:19;22.52;;;8.25;;
83719;SDS011;73702;49.668;8.544;2024-03-02T09:15:45;31.27;;;8.20;;
83719;SDS011;73702;49.668;8.544;2024-03-02T09:18:11;29.23;;;8.48;;
83719;SDS011;73702;49.668;8.544;2024-03-02T09:20:38;22.23;;;7.03;;
83719;SDS011;73702;49.668;8.544;2024-03-02T09:23:05;31.83;;;7.88;;
83719;SDS011;73702;49.668;8.544;2024-03-02T09:25:31;36.28;;;8.63;;
83719;SDS011;73702;49.668;8.544;2024-03-02T09:27:57;27.02;;;7.97;;
83719;SDS011;73702;49.668;8.544;2024-03-02T09:30:24;36.28;;;7.40;;
83719;SDS011;73702;49.668;8.544;2024-03-02T09:32:51;26.33;;;6.95;;
83719;SDS011;73702;49.668;8.544;2024-03-02T09:35:17;20.13;;;6.95;;
83719;SDS011;73702;49.668;8.544;2024-03-02T09:37:44;20.42;;;6.75;;
83719;SDS011;73702;49.668;8.544;2024-03-02T09:40:11;20.88;;;7.15;;
83719;SDS011;73702;49.668;8.544;2024-03-02T09:42:37;25.65;;;6.47;;
83719;SDS011;73702;49.668;8.544;2024-03-02T09:45:04;19.25;;;6.30;;
83719;SDS011;73702;49.668;8.544;2024-03-02T09:47:31;29.27;;;7.75;;
83719;SDS011;73702;49.668;8.544;2024-03-02T09:49:57;20.48;;;5.43;;
83719;SDS011;73702;49.668;8.544;2024-03-02T09:52:24;37.28;;;7.35;;
83719;SDS011;73702;49.668;8.544;2024-03-02T09:54:50;22.88;;;6.00;;
83719;SDS011;73702;49.668;8.544;2024-03-02T09:57:17;18.35;;;5.88;;
83719;SDS011;73702;49.668;8.544;2024-03-02T09:59:43;19.00;;;4.93;;
83719;SDS011;73702;49.668;8.544;2024-03-02T10:02:10;21.70;;;5.05;;
83719;SDS011;73702;49.668;8.544;2024-03-02T10:04:37;27.92;;;5.15;;
83719;SDS011;73702;49.668;8.544;2024-03-02T10:07:16;33.33;;;6.15;;
83719;SDS011;73702;49.668;8.544;2024-03-02T10:09:46;26.67;;;5.25;;
83719;SDS011;73702;49.668;8.544;2024-03-02T10:12:13;23.45;;;4.97;;
83719;SDS011;73702;49.668;8.544;2024-03-02T10:14:40;18.48;;;4.20;;
83719;SDS011;73702;49.668;8.544;2024-03-02T10:17:10;20.08;;;4.28;;
83719;SDS011;73702;49.668;8.544;2024-03-02T10:19:38;28.98;;;5.22;;
83719;SDS011;73702;49.668;8.544;2024-03-02T10:22:05;28.55;;;4.85;;
83719;SDS011;73702;49.668;8.544;2024-03-02T10:24:39;42.90;;;7.15;;
83719;SDS011;73702;49.668;8.544;2024-03-02T10:27:16;26.67;;;4.60;;
83719;SDS011;73702;49.668;8.544;2024-03-02T10:29:45;34.70;;;5.57;;
83719;SDS011;73702;49.668;8.544;2024-03-02T10:32:11;25.17;;;4.85;;
83719;SDS011;73702;49.668;8.544;2024-03-02T10:34:41;39.28;;;5.65;;
83719;SDS011;73702;49.668;8.544;2024-03-02T10:37:08;25.60;;;4.63;;
83719;SDS011;73702;49.668;8.544;2024-03-02T10:39:36;27.27;;;4.97;;
83719;SDS011;73702;49.668;8.544;2024-03-02T10:42:03;23.25;;;4.43;;
83719;SDS011;73702;49.668;8.544;2024-03-02T10:44:30;36.45;;;5.68;;
83719;SDS011;73702;49.668;8.544;2024-03-02T10:46:57;20.55;;;4.72;;
83719;SDS011;73702;49.668;8.544;2024-03-02T10:49:25;35.00;;;5.57;;
83719;SDS011;73702;49.668;8.544;2024-03-02T10:51:53;17.88;;;4.70;;
83719;SDS011;73702;49.668;8.544;2024-03-02T10:54:19;17.95;;;3.70;;
83719;SDS011;73702;49.668;8.544;2024-03-02T10:56:46;17.00;;;3.72;;
83719;SDS011;73702;49.668;8.544;2024-03-02T10:59:24;25.13;;;4.20;;
83719;SDS011;73702;49.668;8.544;2024-03-02T11:01:53;20.92;;;3.80;;
83719;SDS011;73702;49.668;8.544;2024-03-02T11:04:20;27.42;;;4.05;;
83719;SDS011;73702;49.668;8.544;2024-03-02T11:06:51;20.42;;;3.72;;
83719;SDS011;73702;49.668;8.544;2024-03-02T11:09:18;22.58;;;3.55;;
83719;SDS011;73702;49.668;8.544;2024-03-02T11:11:46;16.27;;;2.95;;
83719;SDS011;73702;49.668;8.544;2024-03-02T11:14:16;18.98;;;3.10;;
83719;SDS011;73702;49.668;8.544;2024-03-02T11:16:43;28.63;;;3.75;;
83719;SDS011;73702;49.668;8.544;2024-03-02T11:19:13;21.55;;;3.20;;
83719;SDS011;73702;49.668;8.544;2024-03-02T11:21:43;25.63;;;4.13;;
83719;SDS011;73702;49.668;8.544;2024-03-02T11:26:48;13.48;;;2.42;;
83719;SDS011;73702;49.668;8.544;2024-03-02T11:32:00;19.75;;;3.08;;
83719;SDS011;73702;49.668;8.544;2024-03-02T11:34:30;22.27;;;3.17;;
83719;SDS011;73702;49.668;8.544;2024-03-02T11:36:57;15.93;;;2.70;;
83719;SDS011;73702;49.668;8.544;2024-03-02T11:41:51;16.75;;;3.05;;
83719;SDS011;73702;49.668;8.544;2024-03-02T11:44:19;20.35;;;3.75;;
83719;SDS011;73702;49.668;8.544;2024-03-02T11:46:46;36.80;;;4.82;;
83719;SDS011;73702;49.668;8.544;2024-03-02T11:49:20;24.75;;;3.00;;
83719;SDS011;73702;49.668;8.544;2024-03-02T11:51:53;29.77;;;3.50;;
83719;SDS011;73702;49.668;8.544;2024-03-02T11:54:27;15.43;;;2.00;;
83719;SDS011;73702;49.668;8.544;2024-03-02T11:56:55;23.27;;;2.90;;
83719;SDS011;73702;49.668;8.544;2024-03-02T11:59:22;24.77;;;2.63;;
83719;SDS011;73702;49.668;8.544;2024-03-02T12:01:49;30.17;;;3.03;;
83719;SDS011;73702;49.668;8.544;2024-03-02T12:04:16;19.88;;;2.45;;
83719;SDS011;73702;49.668;8.544;2024-03-02T12:06:42;32.00;;;3.65;;
83719;SDS011;73702;49.668;8.544;2024-03-02T12:09:09;20.30;;;2.67;;
83719;SDS011;73702;49.668;8.544;2024-03-02T12:11:36;28.75;;;3.05;;
83719;SDS011;73702;49.668;8.544;2024-03-02T12:14:02;27.33;;;3.03;;
83719;SDS011;73702;49.668;8.544;2024-03-02T12:16:29;20.27;;;2.63;;
83719;SDS011;73702;49.668;8.544;2024-03-02T12:18:55;16.05;;;2.13;;
83719;SDS011;73702;49.668;8.544;2024-03-02T12:21:21;16.50;;;2.47;;
83719;SDS011;73702;49.668;8.544;2024-03-02T12:23:48;43.85;;;4.85;;
83719;SDS011;73702;49.668;8.544;2024-03-02T12:26:14;31.80;;;3.67;;
83719;SDS011;73702;49.668;8.544;2024-03-02T12:28:41;40.58;;;3.95;;
83719;SDS011;73702;49.668;8.544;2024-03-02T12:31:07;19.95;;;2.60;;
83719;SDS011;73702;49.668;8.544;2024-03-02T12:33:34;29.15;;;3.42;;
83719;SDS011;73702;49.668;8.544;2024-03-02T12:36:00;25.50;;;3.03;;
83719;SDS011;73702;49.668;8.544;2024-03-02T12:38:27;18.00;;;2.53;;
83719;SDS011;73702;49.668;8.544;2024-03-02T12:40:53;25.05;;;3.03;;
83719;SDS011;73702;49.668;8.544;2024-03-02T12:43:19;20.50;;;2.58;;
83719;SDS011;73702;49.668;8.544;2024-03-02T12:45:46;40.75;;;4.40;;
83719;SDS011;73702;49.668;8.544;2024-03-02T12:48:13;37.05;;;3.58;;
83719;SDS011;73702;49.668;8.544;2024-03-02T12:50:39;31.38;;;3.30;;
83719;SDS011;73702;49.668;8.544;2024-03-02T12:53:05;13.95;;;1.95;;
83719;SDS011;73702;49.668;8.544;2024-03-02T12:55:32;26.92;;;3.15;;
83719;SDS011;73702;49.668;8.544;2024-03-02T12:57:59;28.50;;;3.35;;
83719;SDS011;73702;49.668;8.544;2024-03-02T13:00:26;37.17;;;3.80;;
83719;SDS011;73702;49.668;8.544;2024-03-02T13:02:52;26.55;;;3.33;;
83719;SDS011;73702;49.668;8.544;2024-03-02T13:05:19;26.58;;;2.85;;
83719;SDS011;73702;49.668;8.544;2024-03-02T13:07:46;31.85;;;3.20;;
83719;SDS011;73702;49.668;8.544;2024-03-02T13:10:13;22.00;;;2.50;;
83719;SDS011;73702;49.668;8.544;2024-03-02T13:12:39;30.42;;;3.47;;
83719;SDS011;73702;49.668;8.544;2024-03-02T13:15:06;21.63;;;2.75;;
83719;SDS011;73702;49.668;8.544;2024-03-02T13:17:34;23.23;;;3.35;;
83719;SDS011;73702;49.668;8.544;2024-03-02T13:20:04;31.48;;;3.65;;
83719;SDS011;73702;49.668;8.544;2024-03-02T13:22:30;26.48;;;3.28;;
83719;SDS011;73702;49.668;8.544;2024-03-02T13:24:56;34.55;;;3.53;;
83719;SDS011;73702;49.668;8.544;2024-03-02T13:27:23;15.85;;;2.05;;
83719;SDS011;73702;49.668;8.544;2024-03-02T13:29:49;29.05;;;3.15;;
83719;SDS011;73702;49.668;8.544;2024-03-02T13:32:16;15.30;;;2.00;;
83719;SDS011;73702;49.668;8.544;2024-03-02T13:34:42;35.40;;;3.67;;
83719;SDS011;73702;49.668;8.544;2024-03-02T13:37:09;16.45;;;2.03;;
83719;SDS011;73702;49.668;8.544;2024-03-02T13:39:35;20.80;;;2.58;;
83719;SDS011;73702;49.668;8.544;2024-03-02T13:42:02;16.92;;;2.15;;
83719;SDS011;73702;49.668;8.544;2024-03-02T13:44:29;17.85;;;2.35;;
83719;SDS011;73702;49.668;8.544;2024-03-02T13:46:55;28.33;;;3.28;;
83719;SDS011;73702;49.668;8.544;2024-03-02T13:49:22;18.15;;;2.17;;
83719;SDS011;73702;49.668;8.544;2024-03-02T13:51:48;23.02;;;2.72;;
83719;SDS011;73702;49.668;8.544;2024-03-02T13:54:14;27.38;;;3.25;;
83719;SDS011;73702;49.668;8.544;2024-03-02T13:56:41;13.68;;;2.40;;
83719;SDS011;73702;49.668;8.544;2024-03-02T13:59:08;17.88;;;2.58;;
83719;SDS011;73702;49.668;8.544;2024-03-02T14:04:01;17.63;;;2.50;;
83719;SDS011;73702;49.668;8.544;2024-03-02T14:06:27;14.50;;;2.35;;
83719;SDS011;73702;49.668;8.544;2024-03-02T14:08:54;24.90;;;2.97;;
83719;SDS011;73702;49.668;8.544;2024-03-02T14:11:20;22.42;;;2.95;;
83719;SDS011;73702;49.668;8.544;2024-03-02T14:13:47;26.85;;;3.35;;
83719;SDS011;73702;49.668;8.544;2024-03-02T14:16:13;14.15;;;1.90;;
83719;SDS011;73702;49.668;8.544;2024-03-02T14:18:39;22.75;;;2.80;;
83719;SDS011;73702;49.668;8.544;2024-03-02T14:21:06;17.38;;;2.15;;
83719;SDS011;73702;49.668;8.544;2024-03-02T14:23:32;14.68;;;2.10;;
83719;SDS011;73702;49.668;8.544;2024-03-02T14:25:59;27.48;;;3.10;;
83719;SDS011;73702;49.668;8.544;2024-03-02T14:28:25;12.68;;;1.92;;
83719;SDS011;73702;49.668;8.544;2024-03-02T14:31:12;20.40;;;2.63;;
83719;SDS011;73702;49.668;8.544;2024-03-02T14:33:38;16.15;;;2.13;;
83719;SDS011;73702;49.668;8.544;2024-03-02T14:36:05;19.67;;;2.38;;
83719;SDS011;73702;49.668;8.544;2024-03-02T14:38:31;25.85;;;3.10;;
83719;SDS011;73702;49.668;8.544;2024-03-02T14:40:58;23.77;;;2.85;;